Time,TemperatureF,DewpointF,PressureIn,WindDirection,WindDirectionDegrees,WindSpeedMPH,WindSpeedGustMPH,Humidity,HourlyPrecipIn,Conditions,Clouds,dailyrainin,SoftwareType,DateUTC
2013-05-25 00:02:00,47.1,23.5,30.46,East,92,5.4,7.6,39,0.00,,---,0.00,VWS V12.08,2013-05-25 05:02:00,
2013-05-25 00:07:00,46.9,22.0,30.46,SE,136,7.6,7.6,37,0.00,,---,0.00,VWS V12.08,2013-05-25 05:07:00,
2013-05-25 00:12:00,47.1,22.2,30.46,SE,141,7.6,8.1,37,0.00,,---,0.00,VWS V12.08,2013-05-25 05:12:00,
2013-05-25 00:17:00,46.9,20.7,30.46,SE,142,8.1,8.7,35,0.00,,---,0.00,VWS V12.08,2013-05-25 05:17:00,
2013-05-25 00:22:00,46.9,21.4,30.46,SE,144,5.4,8.7,36,0.00,,---,0.00,VWS V12.08,2013-05-25 05:22:00,
2013-05-25 00:27:00,46.9,20.7,30.46,SSE,150,3.6,8.7,35,0.00,,---,0.00,VWS V12.08,2013-05-25 05:27:00,
2013-05-25 00:32:00,46.8,20.6,30.46,SE,129,5.8,5.8,35,0.00,,---,0.00,VWS V12.08,2013-05-25 05:32:00,
2013-05-25 00:37:00,46.8,20.6,30.46,SE,138,6.7,7.6,35,0.00,,---,0.00,VWS V12.08,2013-05-25 05:37:00,
2013-05-25 00:42:00,46.6,20.4,30.43,SE,146,7.6,7.6,35,0.00,,---,0.00,VWS V12.08,2013-05-25 05:42:00,
2013-05-25 00:47:00,46.8,20.6,30.43,SE,130,4.9,5.4,35,0.00,,---,0.00,VWS V12.08,2013-05-25 05:47:00,
2013-05-25 00:52:00,46.6,19.7,30.43,SE,138,3.6,6.3,34,0.00,,---,0.00,VWS V12.08,2013-05-25 05:52:00,
2013-05-25 00:57:00,46.6,19.7,30.43,SE,126,4.0,8.7,34,0.00,,---,0.00,VWS V12.08,2013-05-25 05:57:00,
2013-05-25 01:02:00,46.6,19.7,30.43,East,99,3.1,4.9,34,0.00,,---,0.00,VWS V12.08,2013-05-25 06:02:00,
2013-05-25 01:07:00,46.4,18.9,30.43,SE,137,5.4,6.3,33,0.00,,---,0.00,VWS V12.08,2013-05-25 06:07:00,
2013-05-25 01:12:00,46.4,19.6,30.43,SE,125,2.7,6.3,34,0.00,,---,0.00,VWS V12.08,2013-05-25 06:12:00,
2013-05-25 01:17:00,46.4,19.6,30.43,SSE,150,6.3,6.3,34,0.00,,---,0.00,VWS V12.08,2013-05-25 06:17:00,
2013-05-25 01:23:00,46.2,20.1,30.43,SSE,155,4.9,7.6,35,0.00,,---,0.00,VWS V12.08,2013-05-25 06:23:00,
2013-05-25 01:28:00,46.2,20.1,30.43,SSE,161,4.9,7.6,35,0.00,,---,0.00,VWS V12.08,2013-05-25 06:28:00,
2013-05-25 01:33:00,46.0,20.6,30.43,SSE,155,4.9,4.9,36,0.00,,---,0.00,VWS V12.08,2013-05-25 06:33:00,
2013-05-25 01:38:00,46.0,20.6,30.43,South,172,4.0,6.7,36,0.00,,---,0.00,VWS V12.08,2013-05-25 06:38:00,
2013-05-25 01:43:00,46.0,21.2,30.43,SSE,164,3.1,6.7,37,0.00,,---,0.00,VWS V12.08,2013-05-25 06:43:00,
2013-05-25 01:48:00,46.0,21.2,30.43,SSE,148,4.9,5.4,37,0.00,,---,0.00,VWS V12.08,2013-05-25 06:48:00,
2013-05-25 01:53:00,46.0,22.5,30.43,SE,140,4.9,5.8,39,0.00,,---,0.00,VWS V12.08,2013-05-25 06:53:00,
2013-05-25 01:58:00,45.9,22.9,30.43,SE,144,3.1,5.8,40,0.00,,---,0.00,VWS V12.08,2013-05-25 06:58:00,
2013-05-25 02:03:00,45.9,21.7,30.43,SE,144,2.7,3.6,38,0.00,,---,0.00,VWS V12.08,2013-05-25 07:03:00,
2013-05-25 02:08:00,45.9,21.7,30.43,SE,144,0.0,3.6,38,0.00,,---,0.00,VWS V12.08,2013-05-25 07:08:00,
2013-05-25 02:13:00,45.9,21.7,30.43,SE,144,3.1,4.0,38,0.00,,---,0.00,VWS V12.08,2013-05-25 07:13:00,
2013-05-25 02:18:00,45.9,21.1,30.43,SE,145,3.6,4.0,37,0.00,,---,0.00,VWS V12.08,2013-05-25 07:18:00,
2013-05-25 02:23:00,45.9,21.1,30.43,South,183,3.6,4.0,37,0.00,,---,0.00,VWS V12.08,2013-05-25 07:23:00,
2013-05-25 02:28:00,45.9,21.1,30.46,SW,227,4.9,4.9,37,0.00,,---,0.00,VWS V12.08,2013-05-25 07:28:00,
2013-05-25 02:33:00,45.9,21.7,30.46,SW,230,4.9,5.4,38,0.00,,---,0.00,VWS V12.08,2013-05-25 07:33:00,
2013-05-25 02:38:00,45.7,20.9,30.46,SW,229,4.9,5.4,37,0.00,,---,0.00,VWS V12.08,2013-05-25 07:38:00,
2013-05-25 02:43:00,45.7,20.9,30.46,SW,230,3.1,5.4,37,0.00,,---,0.00,VWS V12.08,2013-05-25 07:43:00,
2013-05-25 02:48:00,45.7,20.9,30.46,SW,229,3.1,3.6,37,0.00,,---,0.00,VWS V12.08,2013-05-25 07:48:00,
2013-05-25 02:53:00,45.7,20.3,30.46,SSW,194,4.9,5.8,36,0.00,,---,0.00,VWS V12.08,2013-05-25 07:53:00,
2013-05-25 02:58:00,45.7,20.3,30.46,South,172,2.7,5.8,36,0.00,,---,0.00,VWS V12.08,2013-05-25 07:58:00,
2013-05-25 03:03:00,45.9,20.4,30.46,South,171,0.0,0.0,36,0.00,,---,0.00,VWS V12.08,2013-05-25 08:03:00,
2013-05-25 03:08:00,45.9,21.1,30.46,South,170,0.0,0.0,37,0.00,,---,0.00,VWS V12.08,2013-05-25 08:08:00,
2013-05-25 03:13:00,45.7,21.5,30.46,South,170,0.0,0.0,38,0.00,,---,0.00,VWS V12.08,2013-05-25 08:13:00,
2013-05-25 03:18:00,45.5,23.8,30.46,South,169,0.0,0.0,42,0.00,,---,0.00,VWS V12.08,2013-05-25 08:18:00,
2013-05-25 03:23:00,45.5,24.9,30.46,SSE,168,0.0,0.0,44,0.00,,---,0.00,VWS V12.08,2013-05-25 08:23:00,
2013-05-25 03:28:00,45.5,24.3,30.46,SSE,167,0.0,0.0,43,0.00,,---,0.00,VWS V12.08,2013-05-25 08:28:00,
2013-05-25 03:33:00,45.7,23.4,30.46,SSE,166,0.0,0.0,41,0.00,,---,0.00,VWS V12.08,2013-05-25 08:33:00,
2013-05-25 03:38:00,45.7,23.9,30.46,SSE,167,0.0,0.0,42,0.00,,---,0.00,VWS V12.08,2013-05-25 08:38:00,
2013-05-25 03:43:00,45.7,24.5,30.46,SSE,166,0.0,0.0,43,0.00,,---,0.00,VWS V12.08,2013-05-25 08:43:00,
2013-05-25 03:48:00,45.9,22.3,30.46,SE,138,0.0,0.0,39,0.00,,---,0.00,VWS V12.08,2013-05-25 08:48:00,
2013-05-25 03:53:00,45.9,21.7,30.46,East,82,0.0,0.0,38,0.00,,---,0.00,VWS V12.08,2013-05-25 08:53:00,
2013-05-25 03:58:00,45.9,22.9,30.46,East,86,0.0,0.0,40,0.00,,---,0.00,VWS V12.08,2013-05-25 08:58:00,
2013-05-25 04:03:00,45.7,23.4,30.46,ESE,118,0.0,0.0,41,0.00,,---,0.00,VWS V12.08,2013-05-25 09:03:00,
2013-05-25 04:08:00,45.9,23.5,30.46,ESE,111,0.0,0.0,41,0.00,,---,0.00,VWS V12.08,2013-05-25 09:08:00,
2013-05-25 04:13:00,45.9,22.3,30.43,ESE,102,0.0,0.0,39,0.00,,---,0.00,VWS V12.08,2013-05-25 09:13:00,
2013-05-25 04:18:00,45.9,21.7,30.43,SE,136,0.0,0.0,38,0.00,,---,0.00,VWS V12.08,2013-05-25 09:18:00,
2013-05-25 04:23:00,46.0,20.6,30.43,ENE,61,0.0,0.0,36,0.00,,---,0.00,VWS V12.08,2013-05-25 09:23:00,
2013-05-25 04:28:00,46.0,21.2,30.46,ENE,63,0.0,0.0,37,0.00,,---,0.00,VWS V12.08,2013-05-25 09:28:00,
2013-05-25 04:33:00,46.0,21.9,30.46,ENE,67,0.0,0.0,38,0.00,,---,0.00,VWS V12.08,2013-05-25 09:33:00,
2013-05-25 04:38:00,46.0,23.1,30.46,East,84,0.0,0.0,40,0.00,,---,0.00,VWS V12.08,2013-05-25 09:38:00,
2013-05-25 04:43:00,46.0,24.8,30.46,East,87,0.0,0.0,43,0.00,,---,0.00,VWS V12.08,2013-05-25 09:43:00,
2013-05-25 04:48:00,46.0,24.8,30.46,East,89,0.0,0.0,43,0.00,,---,0.00,VWS V12.08,2013-05-25 09:48:00,
2013-05-25 04:53:00,46.0,24.8,30.46,East,91,0.0,0.0,43,0.00,,---,0.00,VWS V12.08,2013-05-25 09:53:00,
2013-05-25 04:58:00,46.2,24.4,30.46,SSE,151,0.0,0.0,42,0.00,,---,0.00,VWS V12.08,2013-05-25 09:58:00,
2013-05-25 05:03:00,46.2,23.8,30.46,SSE,164,0.0,0.0,41,0.00,,---,0.00,VWS V12.08,2013-05-25 10:03:00,
2013-05-25 05:08:00,46.4,24.6,30.46,SSE,157,0.0,0.0,42,0.00,,---,0.00,VWS V12.08,2013-05-25 10:08:00,
2013-05-25 05:13:00,46.4,25.1,30.46,SSE,157,0.0,0.0,43,0.00,,---,0.00,VWS V12.08,2013-05-25 10:13:00,
2013-05-25 05:18:00,46.4,25.1,30.46,SSE,158,0.0,0.0,43,0.00,,---,0.00,VWS V12.08,2013-05-25 10:18:00,
2013-05-25 05:23:00,46.4,24.6,30.46,SSE,158,0.0,0.0,42,0.00,,---,0.00,VWS V12.08,2013-05-25 10:23:00,
2013-05-25 05:28:00,46.4,25.1,30.46,SSE,159,0.0,0.0,43,0.00,,---,0.00,VWS V12.08,2013-05-25 10:28:00,
2013-05-25 05:33:00,46.6,24.7,30.46,SSW,206,0.0,0.0,42,0.00,,---,0.00,VWS V12.08,2013-05-25 10:33:00,
2013-05-25 05:38:00,46.6,24.2,30.46,SSW,206,0.0,0.0,41,0.00,,---,0.00,VWS V12.08,2013-05-25 10:38:00,
2013-05-25 05:44:00,46.8,23.1,30.46,SSW,205,0.0,0.0,39,0.00,,---,0.00,VWS V12.08,2013-05-25 10:44:00,
2013-05-25 05:49:00,46.9,22.7,30.46,SSW,205,0.0,0.0,38,0.00,,---,0.00,VWS V12.08,2013-05-25 10:49:00,
2013-05-25 05:54:00,46.9,22.0,30.46,SSW,204,0.0,0.0,37,0.00,,---,0.00,VWS V12.08,2013-05-25 10:54:00,
2013-05-25 05:59:00,46.9,22.0,30.49,SSW,197,0.0,0.0,37,0.00,,---,0.00,VWS V12.08,2013-05-25 10:59:00,
2013-05-25 06:04:00,47.1,22.8,30.49,SSW,197,0.0,0.0,38,0.00,,---,0.00,VWS V12.08,2013-05-25 11:04:00,
2013-05-25 06:09:00,47.1,22.8,30.49,SSW,200,0.0,0.0,38,0.00,,---,0.00,VWS V12.08,2013-05-25 11:09:00,
2013-05-25 06:14:00,47.1,22.8,30.49,SSW,202,0.0,0.0,38,0.00,,---,0.00,VWS V12.08,2013-05-25 11:14:00,
2013-05-25 06:19:00,47.3,22.4,30.49,SSW,202,0.0,0.0,37,0.00,,---,0.00,VWS V12.08,2013-05-25 11:19:00,
2013-05-25 06:24:00,47.3,21.0,30.49,South,179,0.0,0.0,35,0.00,,---,0.00,VWS V12.08,2013-05-25 11:24:00,
2013-05-25 06:29:00,47.5,21.2,30.49,SSW,201,0.0,0.0,35,0.00,,---,0.00,VWS V12.08,2013-05-25 11:29:00,
2013-05-25 06:34:00,47.7,21.4,30.49,SSE,161,0.0,0.0,35,0.00,,---,0.00,VWS V12.08,2013-05-25 11:34:00,
2013-05-25 06:39:00,47.8,21.5,30.49,South,179,0.0,0.0,35,0.00,,---,0.00,VWS V12.08,2013-05-25 11:39:00,
2013-05-25 06:44:00,48.0,21.7,30.49,SSE,160,0.0,0.0,35,0.00,,---,0.00,VWS V12.08,2013-05-25 11:44:00,
2013-05-25 06:49:00,48.2,21.2,30.49,SSE,162,0.0,0.0,34,0.00,,---,0.00,VWS V12.08,2013-05-25 11:49:00,
2013-05-25 06:54:00,48.6,21.5,30.49,SSE,162,0.0,0.0,34,0.00,,---,0.00,VWS V12.08,2013-05-25 11:54:00,
2013-05-25 06:59:00,48.7,21.6,30.49,South,170,0.0,0.0,34,0.00,,---,0.00,VWS V12.08,2013-05-25 11:59:00,
2013-05-25 07:04:00,48.9,21.8,30.49,SSE,157,0.0,0.0,34,0.00,,---,0.00,VWS V12.08,2013-05-25 12:04:00,
2013-05-25 07:09:00,49.3,22.1,30.49,SSE,150,0.0,0.0,34,0.00,,---,0.00,VWS V12.08,2013-05-25 12:09:00,
2013-05-25 07:14:00,49.5,21.6,30.49,SSE,157,0.0,0.0,33,0.00,,---,0.00,VWS V12.08,2013-05-25 12:14:00,
2013-05-25 07:19:00,49.6,21.7,30.49,South,173,0.0,0.0,33,0.00,,---,0.00,VWS V12.08,2013-05-25 12:19:00,
2013-05-25 07:24:00,49.6,21.7,30.49,SSE,158,0.0,0.0,33,0.00,,---,0.00,VWS V12.08,2013-05-25 12:24:00,
2013-05-25 07:29:00,49.6,21.7,30.49,SE,141,0.0,0.0,33,0.00,,---,0.00,VWS V12.08,2013-05-25 12:29:00,
2013-05-25 07:34:00,49.8,22.6,30.49,SE,140,0.0,0.0,34,0.00,,---,0.00,VWS V12.08,2013-05-25 12:34:00,
2013-05-25 07:39:00,50.0,22.0,30.49,SE,131,0.0,0.0,33,0.00,,---,0.00,VWS V12.08,2013-05-25 12:39:00,
2013-05-25 07:44:00,50.2,22.2,30.49,ESE,119,0.0,0.0,33,0.00,,---,0.00,VWS V12.08,2013-05-25 12:44:00,
2013-05-25 07:49:00,50.5,21.8,30.49,SSE,157,0.0,0.0,32,0.00,,---,0.00,VWS V12.08,2013-05-25 12:49:00,
2013-05-25 07:54:00,50.9,22.1,30.49,ESE,113,0.0,0.0,32,0.00,,---,0.00,VWS V12.08,2013-05-25 12:54:00,
2013-05-25 07:59:00,51.8,22.9,30.49,SE,127,0.0,0.0,32,0.00,,---,0.00,VWS V12.08,2013-05-25 12:59:00,
2013-05-25 08:04:00,52.3,23.4,30.49,ENE,60,4.9,7.2,32,0.00,,---,0.00,VWS V12.08,2013-05-25 13:04:00,
2013-05-25 08:09:00,52.3,23.4,30.49,SSE,160,5.4,7.2,32,0.00,,---,0.00,VWS V12.08,2013-05-25 13:09:00,
2013-05-25 08:14:00,52.2,23.2,30.49,SE,145,5.8,7.6,32,0.00,,---,0.00,VWS V12.08,2013-05-25 13:14:00,
2013-05-25 08:19:00,51.8,22.9,30.49,SE,142,6.3,9.2,32,0.00,,---,0.00,VWS V12.08,2013-05-25 13:19:00,
2013-05-25 08:24:00,51.6,21.2,30.49,SE,137,4.5,9.2,30,0.00,,---,0.00,VWS V12.08,2013-05-25 13:24:00,
2013-05-25 08:29:00,51.6,22.7,30.49,SSE,164,8.7,9.2,32,0.00,,---,0.00,VWS V12.08,2013-05-25 13:29:00,
2013-05-25 08:34:00,51.6,22.7,30.49,SE,144,5.8,6.7,32,0.00,,---,0.00,VWS V12.08,2013-05-25 13:34:00,
2013-05-25 08:39:00,51.8,22.9,30.49,SSE,151,5.4,6.7,32,0.00,,---,0.00,VWS V12.08,2013-05-25 13:39:00,
2013-05-25 08:44:00,52.0,23.1,30.49,SSE,149,5.4,7.6,32,0.00,,---,0.00,VWS V12.08,2013-05-25 13:44:00,
2013-05-25 08:49:00,52.0,23.1,30.49,SE,146,5.8,6.3,32,0.00,,---,0.00,VWS V12.08,2013-05-25 13:49:00,
2013-05-25 08:54:00,52.3,21.0,30.49,SE,136,4.0,6.3,29,0.00,,---,0.00,VWS V12.08,2013-05-25 13:54:00,
2013-05-25 08:59:00,52.7,23.7,30.49,ENE,68,0.0,6.3,32,0.00,,---,0.00,VWS V12.08,2013-05-25 13:59:00,
2013-05-25 09:04:00,52.9,21.5,30.49,SE,144,8.3,8.3,29,0.00,,---,0.00,VWS V12.08,2013-05-25 14:04:00,
2013-05-25 09:09:00,53.2,21.8,30.49,SE,145,6.3,8.3,29,0.00,,---,0.00,VWS V12.08,2013-05-25 14:09:00,
2013-05-25 09:14:00,53.4,22.0,30.49,SSE,148,8.7,10.1,29,0.00,,---,0.00,VWS V12.08,2013-05-25 14:14:00,
2013-05-25 09:19:00,53.8,23.9,30.49,SE,138,6.3,8.7,31,0.00,,---,0.00,VWS V12.08,2013-05-25 14:19:00,
2013-05-25 09:24:00,54.1,22.6,30.49,SSE,147,5.4,8.7,29,0.00,,---,0.00,VWS V12.08,2013-05-25 14:24:00,
2013-05-25 09:29:00,54.1,20.0,30.49,South,169,4.0,8.7,26,0.00,,---,0.00,VWS V12.08,2013-05-25 14:29:00,
2013-05-25 09:34:00,54.1,22.6,30.49,SE,144,8.1,8.7,29,0.00,,---,0.00,VWS V12.08,2013-05-25 14:34:00,
2013-05-25 09:40:00,54.5,22.9,30.49,SE,143,6.3,9.2,29,0.00,,---,0.00,VWS V12.08,2013-05-25 14:40:00,
2013-05-25 09:45:00,54.9,23.2,30.49,ENE,78,4.0,9.2,29,0.00,,---,0.00,VWS V12.08,2013-05-25 14:45:00,
2013-05-25 09:50:00,55.0,23.4,30.49,ESE,112,4.9,5.8,29,0.00,,---,0.00,VWS V12.08,2013-05-25 14:50:00,
2013-05-25 09:55:00,55.0,20.8,30.49,SE,136,4.0,8.1,26,0.00,,---,0.00,VWS V12.08,2013-05-25 14:55:00,
2013-05-25 10:00:00,55.2,23.5,30.49,SSE,151,8.1,8.1,29,0.00,,---,0.00,VWS V12.08,2013-05-25 15:00:00,
2013-05-25 10:05:00,55.0,20.8,30.49,ENE,67,3.6,5.8,26,0.00,,---,0.00,VWS V12.08,2013-05-25 15:05:00,
2013-05-25 10:10:00,55.0,23.4,30.49,ENE,70,3.1,5.8,29,0.00,,---,0.00,VWS V12.08,2013-05-25 15:10:00,
2013-05-25 10:15:00,55.2,23.5,30.49,SE,139,4.9,6.3,29,0.00,,---,0.00,VWS V12.08,2013-05-25 15:15:00,
2013-05-25 10:20:00,55.4,21.1,30.49,NE,49,3.6,5.8,26,0.00,,---,0.00,VWS V12.08,2013-05-25 15:20:00,
2013-05-25 10:25:00,55.2,21.0,30.49,ESE,114,4.9,6.3,26,0.00,,---,0.00,VWS V12.08,2013-05-25 15:25:00,
2013-05-25 10:30:00,55.4,21.1,30.49,NNE,30,4.0,6.3,26,0.00,,---,0.00,VWS V12.08,2013-05-25 15:30:00,
2013-05-25 10:35:00,55.6,21.3,30.49,ESE,123,5.8,8.3,26,0.00,,---,0.00,VWS V12.08,2013-05-25 15:35:00,
2013-05-25 10:40:00,55.8,23.2,30.49,ENE,58,5.8,8.3,28,0.00,,---,0.00,VWS V12.08,2013-05-25 15:40:00,
2013-05-25 10:45:00,56.1,23.5,30.49,East,91,3.6,8.3,28,0.00,,---,0.00,VWS V12.08,2013-05-25 15:45:00,
2013-05-25 10:50:00,55.9,21.6,30.49,SSE,149,3.1,8.7,26,0.00,,---,0.00,VWS V12.08,2013-05-25 15:50:00,
2013-05-25 10:55:00,55.9,21.6,30.49,East,98,4.0,8.7,26,0.00,,---,0.00,VWS V12.08,2013-05-25 15:55:00,
2013-05-25 11:00:00,56.1,21.7,30.49,ESE,108,2.7,8.7,26,0.00,,---,0.00,VWS V12.08,2013-05-25 16:00:00,
2013-05-25 11:05:00,56.5,22.0,30.49,SE,125,5.8,6.3,26,0.00,,---,0.00,VWS V12.08,2013-05-25 16:05:00,
2013-05-25 11:10:00,56.7,22.2,30.49,ESE,116,4.9,8.7,26,0.00,,---,0.00,VWS V12.08,2013-05-25 16:10:00,
2013-05-25 11:15:00,57.0,22.5,30.49,SE,129,3.6,8.7,26,0.00,,---,0.00,VWS V12.08,2013-05-25 16:15:00,
2013-05-25 11:20:00,57.2,21.7,30.49,NE,55,4.9,8.7,25,0.00,,---,0.00,VWS V12.08,2013-05-25 16:20:00,
2013-05-25 11:25:00,57.4,21.9,30.49,ESE,105,5.4,9.6,25,0.00,,---,0.00,VWS V12.08,2013-05-25 16:25:00,
2013-05-25 11:30:00,57.2,21.7,30.49,SSE,150,2.2,9.6,25,0.00,,---,0.00,VWS V12.08,2013-05-25 16:30:00,
2013-05-25 11:35:00,57.4,21.9,30.49,SE,127,6.3,8.3,25,0.00,,---,0.00,VWS V12.08,2013-05-25 16:35:00,
2013-05-25 11:40:00,57.6,22.0,30.46,SE,138,8.3,12.8,25,0.00,,---,0.00,VWS V12.08,2013-05-25 16:40:00,
2013-05-25 11:45:00,57.7,22.2,30.46,SE,141,5.4,12.8,25,0.00,,---,0.00,VWS V12.08,2013-05-25 16:45:00,
2013-05-25 11:50:00,57.7,22.2,30.46,SSE,151,12.3,12.8,25,0.00,,---,0.00,VWS V12.08,2013-05-25 16:50:00,
2013-05-25 11:55:00,58.1,22.5,30.49,SE,129,3.1,12.8,25,0.00,,---,0.00,VWS V12.08,2013-05-25 16:55:00,
2013-05-25 12:00:00,58.5,22.8,30.49,SSE,162,10.1,12.8,25,0.00,,---,0.00,VWS V12.08,2013-05-25 17:00:00,
2013-05-25 12:05:00,58.5,22.8,30.49,SE,146,15.0,16.8,25,0.00,,---,0.00,VWS V12.08,2013-05-25 17:05:00,
2013-05-25 12:10:00,58.3,22.6,30.49,SSE,152,8.3,16.8,25,0.00,,---,0.00,VWS V12.08,2013-05-25 17:10:00,
2013-05-25 12:15:00,58.5,22.8,30.49,SE,127,5.4,16.8,25,0.00,,---,0.00,VWS V12.08,2013-05-25 17:15:00,
2013-05-25 12:20:00,58.6,22.9,30.49,SE,138,7.6,13.2,25,0.00,,---,0.00,VWS V12.08,2013-05-25 17:20:00,
2013-05-25 12:25:00,58.8,23.1,30.46,SE,145,11.0,14.5,25,0.00,,---,0.00,VWS V12.08,2013-05-25 17:25:00,
2013-05-25 12:30:00,59.0,23.2,30.46,SSE,161,7.2,14.5,25,0.00,,---,0.00,VWS V12.08,2013-05-25 17:30:00,
2013-05-25 12:35:00,59.2,23.4,30.46,SE,143,13.6,13.6,25,0.00,,---,0.00,VWS V12.08,2013-05-25 17:35:00,
2013-05-25 12:40:00,58.8,23.1,30.46,SE,131,7.6,13.6,25,0.00,,---,0.00,VWS V12.08,2013-05-25 17:40:00,
2013-05-25 12:45:00,59.2,23.4,30.46,SSE,152,8.7,14.1,25,0.00,,---,0.00,VWS V12.08,2013-05-25 17:45:00,
2013-05-25 12:50:00,60.4,24.5,30.46,SE,142,10.5,12.8,25,0.00,,---,0.00,VWS V12.08,2013-05-25 17:50:00,
2013-05-25 12:55:00,60.3,24.3,30.46,ESE,118,4.0,12.8,25,0.00,,---,0.00,VWS V12.08,2013-05-25 17:55:00,
2013-05-25 13:00:00,60.3,24.3,30.46,SSE,155,12.8,12.8,25,0.00,,---,0.00,VWS V12.08,2013-05-25 18:00:00,
2013-05-25 13:05:00,60.4,24.5,30.46,SE,141,10.1,15.0,25,0.00,,---,0.00,VWS V12.08,2013-05-25 18:05:00,
2013-05-25 13:10:00,60.4,24.5,30.46,SSE,151,15.4,15.4,25,0.00,,---,0.00,VWS V12.08,2013-05-25 18:10:00,
2013-05-25 13:16:00,60.6,24.6,30.46,SSE,151,12.8,15.4,25,0.00,,---,0.00,VWS V12.08,2013-05-25 18:16:00,
2013-05-25 13:21:00,61.7,25.5,30.46,SE,144,15.9,17.4,25,0.00,,---,0.00,VWS V12.08,2013-05-25 18:21:00,
2013-05-25 13:26:00,60.8,24.8,30.43,SE,144,10.1,17.4,25,0.00,,---,0.00,VWS V12.08,2013-05-25 18:26:00,
2013-05-25 13:31:00,60.6,24.6,30.43,SE,146,12.3,17.4,25,0.00,,---,0.00,VWS V12.08,2013-05-25 18:31:00,
2013-05-25 13:36:00,60.4,24.5,30.43,SE,144,8.1,15.0,25,0.00,,---,0.00,VWS V12.08,2013-05-25 18:36:00,
2013-05-25 13:41:00,60.8,24.8,30.43,SE,137,11.0,15.0,25,0.00,,---,0.00,VWS V12.08,2013-05-25 18:41:00,
2013-05-25 13:46:00,61.3,25.2,30.43,SSE,159,8.1,15.0,25,0.00,,---,0.00,VWS V12.08,2013-05-25 18:46:00,
2013-05-25 13:51:00,61.0,24.9,30.43,SE,134,8.7,10.1,25,0.00,,---,0.00,VWS V12.08,2013-05-25 18:51:00,
2013-05-25 13:56:00,61.2,25.1,30.43,SSE,152,4.0,10.5,25,0.00,,---,0.00,VWS V12.08,2013-05-25 18:56:00,
2013-05-25 14:01:00,60.6,24.6,30.43,SSE,157,3.6,12.8,25,0.00,,---,0.00,VWS V12.08,2013-05-25 19:01:00,
2013-05-25 14:06:00,60.4,24.5,30.43,NE,44,3.1,8.7,25,0.00,,---,0.00,VWS V12.08,2013-05-25 19:06:00,
2013-05-25 14:11:00,61.2,25.1,30.43,SSE,147,6.3,13.2,25,0.00,,---,0.00,VWS V12.08,2013-05-25 19:11:00,
2013-05-25 14:16:00,61.3,25.2,30.43,SSE,158,10.5,13.2,25,0.00,,---,0.00,VWS V12.08,2013-05-25 19:16:00,
2013-05-25 14:21:00,61.7,25.5,30.43,SE,140,16.3,16.3,25,0.00,,---,0.00,VWS V12.08,2013-05-25 19:21:00,
2013-05-25 14:26:00,61.7,25.5,30.43,SSE,151,9.2,17.0,25,0.00,,---,0.00,VWS V12.08,2013-05-25 19:26:00,
2013-05-25 14:31:00,61.3,25.2,30.43,SSE,164,5.8,17.0,25,0.00,,---,0.00,VWS V12.08,2013-05-25 19:31:00,
2013-05-25 14:36:00,61.3,25.2,30.43,SE,137,10.5,13.2,25,0.00,,---,0.00,VWS V12.08,2013-05-25 19:36:00,
2013-05-25 14:41:00,61.3,22.2,30.43,SSW,194,10.5,15.0,22,0.00,,---,0.00,VWS V12.08,2013-05-25 19:41:00,
2013-05-25 14:46:00,61.0,21.9,30.43,SSE,155,11.9,15.0,22,0.00,,---,0.00,VWS V12.08,2013-05-25 19:46:00,
2013-05-25 14:51:00,61.7,22.5,30.43,South,176,11.0,12.3,22,0.00,,---,0.00,VWS V12.08,2013-05-25 19:51:00,
2013-05-25 14:56:00,61.7,22.5,30.46,South,172,8.3,12.3,22,0.00,,---,0.00,VWS V12.08,2013-05-25 19:56:00,
2013-05-25 15:01:00,61.5,22.3,30.46,South,185,8.7,12.3,22,0.00,,---,0.00,VWS V12.08,2013-05-25 20:01:00,
2013-05-25 15:06:00,61.3,22.2,30.46,SSE,165,8.7,10.5,22,0.00,,---,0.00,VWS V12.08,2013-05-25 20:06:00,
2013-05-25 15:11:00,61.2,22.0,30.46,SSE,155,5.4,10.5,22,0.00,,---,0.00,VWS V12.08,2013-05-25 20:11:00,
2013-05-25 15:16:00,61.0,21.9,30.46,SSE,168,5.4,10.5,22,0.00,,---,0.00,VWS V12.08,2013-05-25 20:16:00,
2013-05-25 15:21:00,61.0,21.9,30.46,SSE,165,8.3,8.7,22,0.00,,---,0.00,VWS V12.08,2013-05-25 20:21:00,
2013-05-25 15:26:00,61.9,25.7,30.43,SE,139,5.8,11.0,25,0.00,,---,0.00,VWS V12.08,2013-05-25 20:26:00,
2013-05-25 15:31:00,62.2,26.0,30.43,SSE,161,10.5,11.0,25,0.00,,---,0.00,VWS V12.08,2013-05-25 20:31:00,
2013-05-25 15:36:00,62.1,22.8,30.43,ESE,118,3.6,8.7,22,0.00,,---,0.00,VWS V12.08,2013-05-25 20:36:00,
2013-05-25 15:41:00,61.7,25.5,30.43,SSE,148,8.7,8.7,25,0.00,,---,0.00,VWS V12.08,2013-05-25 20:41:00,
2013-05-25 15:46:00,61.7,25.5,30.43,SSE,167,6.3,8.7,25,0.00,,---,0.00,VWS V12.08,2013-05-25 20:46:00,
2013-05-25 15:51:00,61.7,25.5,30.43,SSE,150,5.4,8.7,25,0.00,,---,0.00,VWS V12.08,2013-05-25 20:51:00,
2013-05-25 15:56:00,61.3,25.2,30.43,SE,124,4.9,8.7,25,0.00,,---,0.00,VWS V12.08,2013-05-25 20:56:00,
2013-05-25 16:01:00,61.2,25.1,30.43,SE,133,6.3,8.7,25,0.00,,---,0.00,VWS V12.08,2013-05-25 21:01:00,
2013-05-25 16:06:00,61.7,25.5,30.43,NE,34,3.1,10.5,25,0.00,,---,0.00,VWS V12.08,2013-05-25 21:06:00,
2013-05-25 16:11:00,62.2,26.0,30.43,SE,143,8.1,12.3,25,0.00,,---,0.00,VWS V12.08,2013-05-25 21:11:00,
2013-05-25 16:16:00,62.4,26.2,30.43,SSE,156,10.1,12.3,25,0.00,,---,0.00,VWS V12.08,2013-05-25 21:16:00,
2013-05-25 16:21:00,63.0,25.6,30.43,SSE,152,5.4,8.7,24,0.00,,---,0.00,VWS V12.08,2013-05-25 21:21:00,
2013-05-25 16:26:00,63.0,25.6,30.43,SE,140,7.6,10.5,24,0.00,,---,0.00,VWS V12.08,2013-05-25 21:26:00,
2013-05-25 16:31:00,63.1,25.8,30.43,ENE,78,5.8,10.5,24,0.00,,---,0.00,VWS V12.08,2013-05-25 21:31:00,
2013-05-25 16:36:00,62.8,25.5,30.43,SE,124,4.9,11.0,24,0.00,,---,0.00,VWS V12.08,2013-05-25 21:36:00,
2013-05-25 16:41:00,62.2,26.0,30.43,South,174,5.4,11.0,25,0.00,,---,0.00,VWS V12.08,2013-05-25 21:41:00,
2013-05-25 16:46:00,61.9,25.7,30.43,SE,141,11.4,11.4,25,0.00,,---,0.00,VWS V12.08,2013-05-25 21:46:00,
2013-05-25 16:51:00,61.3,25.2,30.43,SE,142,8.3,12.8,25,0.00,,---,0.00,VWS V12.08,2013-05-25 21:51:00,
2013-05-25 16:57:00,61.5,25.4,30.43,SSE,147,11.0,12.8,25,0.00,,---,0.00,VWS V12.08,2013-05-25 21:57:00,
2013-05-25 17:02:00,61.5,25.4,30.43,ENE,75,5.4,12.8,25,0.00,,---,0.00,VWS V12.08,2013-05-25 22:02:00,
2013-05-25 17:07:00,61.7,25.5,30.43,SE,128,4.0,8.3,25,0.00,,---,0.00,VWS V12.08,2013-05-25 22:07:00,
2013-05-25 17:12:00,61.5,25.4,30.43,SSE,150,5.8,8.3,25,0.00,,---,0.00,VWS V12.08,2013-05-25 22:12:00,
2013-05-25 17:17:00,61.0,24.9,30.43,SE,142,11.0,13.6,25,0.00,,---,0.00,VWS V12.08,2013-05-25 22:17:00,
2013-05-25 17:22:00,60.8,24.8,30.43,SE,145,8.3,11.4,25,0.00,,---,0.00,VWS V12.08,2013-05-25 22:22:00,
2013-05-25 17:27:00,60.4,24.5,30.43,SE,127,11.0,12.3,25,0.00,,---,0.00,VWS V12.08,2013-05-25 22:27:00,
2013-05-25 17:32:00,60.3,22.3,30.43,NNE,24,3.6,12.3,23,0.00,,---,0.00,VWS V12.08,2013-05-25 22:32:00,
2013-05-25 17:37:00,60.3,22.3,30.43,ESE,109,8.1,12.3,23,0.00,,---,0.00,VWS V12.08,2013-05-25 22:37:00,
2013-05-25 17:42:00,60.3,22.3,30.43,SE,133,4.9,12.3,23,0.00,,---,0.00,VWS V12.08,2013-05-25 22:42:00,
2013-05-25 17:47:00,60.4,22.5,30.43,East,84,4.0,7.6,23,0.00,,---,0.00,VWS V12.08,2013-05-25 22:47:00,
2013-05-25 17:52:00,60.4,22.5,30.43,SE,138,6.3,8.3,23,0.00,,---,0.00,VWS V12.08,2013-05-25 22:52:00,
2013-05-25 17:57:00,60.3,22.3,30.43,ESE,102,3.1,8.3,23,0.00,,---,0.00,VWS V12.08,2013-05-25 22:57:00,
2013-05-25 18:02:00,60.1,22.2,30.43,SE,136,8.7,9.6,23,0.00,,---,0.00,VWS V12.08,2013-05-25 23:02:00,
2013-05-25 18:07:00,59.9,22.0,30.43,SSE,155,8.3,9.6,23,0.00,,---,0.00,VWS V12.08,2013-05-25 23:07:00,
2013-05-25 18:12:00,59.7,21.9,30.40,SE,143,9.6,11.0,23,0.00,,---,0.00,VWS V12.08,2013-05-25 23:12:00,
2013-05-25 18:17:00,59.9,22.0,30.40,SE,143,8.1,10.5,23,0.00,,---,0.00,VWS V12.08,2013-05-25 23:17:00,
2013-05-25 18:22:00,59.9,22.0,30.40,SE,140,6.3,10.5,23,0.00,,---,0.00,VWS V12.08,2013-05-25 23:22:00,
2013-05-25 18:27:00,60.1,24.2,30.40,SE,139,5.8,10.5,25,0.00,,---,0.00,VWS V12.08,2013-05-25 23:27:00,
2013-05-25 18:32:00,60.4,24.5,30.40,SE,127,5.4,6.7,25,0.00,,---,0.00,VWS V12.08,2013-05-25 23:32:00,
2013-05-25 18:37:00,60.6,24.6,30.40,SE,144,3.1,7.6,25,0.00,,---,0.00,VWS V12.08,2013-05-25 23:37:00,
2013-05-25 18:42:00,60.3,24.3,30.40,SSE,148,7.6,9.2,25,0.00,,---,0.00,VWS V12.08,2013-05-25 23:42:00,
2013-05-25 18:47:00,60.1,24.2,30.40,SSE,149,10.1,11.0,25,0.00,,---,0.00,VWS V12.08,2013-05-25 23:47:00,
2013-05-25 18:52:00,59.9,22.0,30.40,SE,140,9.6,12.3,23,0.00,,---,0.00,VWS V12.08,2013-05-25 23:52:00,
2013-05-25 18:57:00,59.7,21.9,30.40,SSE,147,10.5,12.3,23,0.00,,---,0.00,VWS V12.08,2013-05-25 23:57:00,
2013-05-25 19:02:00,59.5,21.7,30.40,SE,138,9.2,10.5,23,0.00,,---,0.00,VWS V12.08,2013-05-26 00:02:00,
2013-05-25 19:07:00,59.5,23.7,30.40,SE,145,8.7,11.0,25,0.00,,---,0.00,VWS V12.08,2013-05-26 00:07:00,
2013-05-25 19:08:00,59.4,21.6,30.40,SE,140,3.6,11.0,23,0.00,,---,0.00,VWS V12.08,2013-05-26 00:08:00,
2013-05-25 19:12:00,59.4,21.6,30.40,SE,140,3.6,11.0,23,0.00,,---,0.00,VWS V12.08,2013-05-26 00:12:00,
2013-05-25 19:17:00,59.4,21.6,30.40,SE,140,3.6,11.0,23,0.00,,---,0.00,VWS V12.08,2013-05-26 00:17:00,
2013-05-25 20:07:00,59.4,21.6,30.40,SE,140,3.6,11.0,23,0.00,,---,0.00,VWS V12.08,2013-05-26 01:07:00,
2013-05-25 20:12:00,59.4,21.6,30.40,SE,140,3.6,11.0,23,0.00,,---,0.00,VWS V12.08,2013-05-26 01:12:00,